createdAt,value
2023-02-06T00:00:47.526Z,99.993896
2023-02-06T00:01:56.314Z,99.993896
2023-02-06T00:03:04.027Z,99.993896
2023-02-06T00:04:13.739Z,99.993896
2023-02-06T00:05:22.406Z,99.993896
2023-02-06T00:06:32.069Z,99.993896
2023-02-06T00:07:40.753Z,99.993896
2023-02-06T00:08:49.436Z,99.993896
2023-02-06T00:09:59.105Z,99.993896
2023-02-06T00:11:06.823Z,99.993896
2023-02-06T00:12:14.486Z,99.993896
2023-02-06T00:13:24.181Z,99.993896
2023-02-06T00:14:33.912Z,99.993896
2023-02-06T00:15:42.596Z,99.993896
2023-02-06T00:16:51.256Z,99.993896
2023-02-06T00:18:00.090Z,99.993896
2023-02-06T00:19:09.718Z,99.993896
2023-02-06T00:20:17.420Z,99.993896
2023-02-06T00:21:26.156Z,99.993896
2023-02-06T00:22:35.786Z,99.993896
2023-02-06T00:23:45.461Z,99.993896
2023-02-06T00:24:55.129Z,99.993896
2023-02-06T00:26:03.842Z,99.993896
2023-02-06T00:27:12.490Z,99.993896
2023-02-06T00:28:22.162Z,99.993896
2023-02-06T00:29:29.855Z,99.993896
2023-02-06T00:30:37.540Z,99.993896
2023-02-06T00:31:47.283Z,99.993896
2023-02-06T00:32:55.935Z,99.993896
2023-02-06T00:34:05.679Z,99.993896
2023-02-06T00:35:15.353Z,99.993896
2023-02-06T00:36:26.011Z,99.993896
2023-02-06T00:37:35.741Z,99.993896
2023-02-06T00:38:44.403Z,99.993896
2023-02-06T00:39:53.077Z,99.993896
2023-02-06T00:41:02.745Z,99.993896
2023-02-06T00:42:12.436Z,99.993896
2023-02-06T00:43:21.189Z,99.993896
2023-02-06T00:44:29.936Z,99.993896
2023-02-06T00:45:38.612Z,99.993896
2023-02-06T00:46:48.297Z,99.993896
2023-02-06T00:47:55.990Z,99.993896
2023-02-06T00:49:04.717Z,99.993896
2023-02-06T00:50:14.423Z,99.993896
2023-02-06T00:51:23.077Z,99.993896
2023-02-06T00:52:31.746Z,99.993896
2023-02-06T00:53:40.416Z,99.993896
2023-02-06T00:54:50.178Z,99.993896
2023-02-06T00:55:59.846Z,99.993896
2023-02-06T00:57:07.509Z,99.993896
2023-02-06T00:58:16.172Z,99.993896
2023-02-06T00:59:24.847Z,99.993896
2023-02-06T01:00:33.560Z,99.993896
2023-02-06T01:01:42.299Z,99.993896
2023-02-06T01:02:50.984Z,99.993896
2023-02-06T01:03:59.633Z,99.993896
2023-02-06T01:05:07.361Z,99.993896
2023-02-06T01:06:17.099Z,99.993896
2023-02-06T01:07:26.809Z,99.993896
2023-02-06T01:08:35.529Z,99.993896
2023-02-06T01:09:45.196Z,99.993896
2023-02-06T01:10:54.878Z,99.993896
2023-02-06T01:12:04.708Z,99.993896
2023-02-06T01:13:13.394Z,99.993896
2023-02-06T01:14:21.092Z,99.993896
2023-02-06T01:15:30.788Z,99.993896
2023-02-06T01:16:39.458Z,99.993896
2023-02-06T01:17:48.178Z,99.993896
2023-02-06T01:18:57.884Z,99.993896
2023-02-06T01:20:06.556Z,99.993896
2023-02-06T01:21:16.239Z,99.993896
2023-02-06T01:22:25.964Z,99.993896
2023-02-06T01:23:33.635Z,99.993896
2023-02-06T01:24:43.296Z,99.993896
2023-02-06T01:25:51.982Z,99.993896
2023-02-06T01:27:02.642Z,99.993896
2023-02-06T01:28:11.367Z,99.993896
2023-02-06T01:29:20.292Z,99.993896
2023-02-06T01:30:30.092Z,99.993896
2023-02-06T01:31:38.816Z,99.993896
2023-02-06T01:32:47.411Z,99.993896
2023-02-06T01:33:57.083Z,99.993896
2023-02-06T01:35:05.788Z,99.993896
2023-02-06T01:36:14.474Z,99.993896
2023-02-06T01:37:23.158Z,99.993896
2023-02-06T01:38:31.852Z,99.993896
2023-02-06T01:39:41.507Z,99.993896
2023-02-06T01:40:49.204Z,99.993896
2023-02-06T01:41:57.870Z,99.993896
2023-02-06T01:43:07.543Z,99.993896
2023-02-06T01:44:16.209Z,99.993896
2023-02-06T01:45:24.876Z,99.993896
2023-02-06T01:46:33.619Z,99.993896
2023-02-06T01:47:42.233Z,99.993896
2023-02-06T01:48:51.917Z,99.993896
2023-02-06T01:49:59.592Z,99.993896
2023-02-06T01:51:07.305Z,99.993896
2023-02-06T01:52:17.250Z,99.993896
2023-02-06T01:53:25.927Z,99.993896
2023-02-06T01:54:35.692Z,99.993896
2023-02-06T01:55:45.347Z,99.993896
2023-02-06T01:56:55.064Z,99.993896
2023-02-06T01:58:04.775Z,99.993896
2023-02-06T01:59:13.441Z,99.993896
2023-02-06T02:00:21.104Z,99.993896
2023-02-06T02:01:30.796Z,99.993896
2023-02-06T02:02:39.473Z,99.993896
2023-02-06T02:03:49.159Z,99.993896
2023-02-06T02:04:57.862Z,99.993896
2023-02-06T02:06:06.521Z,99.993896
2023-02-06T02:07:16.208Z,99.993896
2023-02-06T02:08:24.872Z,99.993896
2023-02-06T02:09:31.548Z,99.993896
2023-02-06T02:10:41.298Z,99.993896
2023-02-06T02:11:50.945Z,99.993896
2023-02-06T02:13:00.631Z,99.993896
2023-02-06T02:14:10.327Z,99.993896
2023-02-06T02:15:20.128Z,99.993896
2023-02-06T02:16:29.890Z,99.993896
2023-02-06T02:17:38.527Z,99.993896
2023-02-06T02:18:47.199Z,99.993896
2023-02-06T02:19:56.875Z,99.993896
2023-02-06T02:21:05.580Z,99.993896
2023-02-06T02:22:14.237Z,99.993896
2023-02-06T02:23:22.934Z,99.993896
2023-02-06T02:24:32.583Z,99.993896
2023-02-06T02:25:42.267Z,99.993896
2023-02-06T02:26:50.979Z,99.993896
2023-02-06T02:27:58.642Z,99.993896
2023-02-06T02:29:08.322Z,99.993896
2023-02-06T02:30:17.073Z,99.993896
2023-02-06T02:31:25.730Z,99.993896
2023-02-06T02:32:34.470Z,99.993896
2023-02-06T02:33:44.129Z,99.993896
2023-02-06T02:34:53.836Z,99.993896
2023-02-06T02:36:01.522Z,99.993896
2023-02-06T02:37:09.155Z,99.993896
2023-02-06T02:38:18.845Z,99.993896
2023-02-06T02:39:27.506Z,99.993896
2023-02-06T02:40:37.230Z,99.993896
2023-02-06T02:41:46.916Z,99.804688
2023-02-06T02:42:55.596Z,99.487305
2023-02-06T02:44:05.289Z,99.487305
2023-02-06T02:45:13.976Z,99.591064
2023-02-06T02:46:22.671Z,99.487305
2023-02-06T02:47:32.341Z,99.487305
2023-02-06T02:48:41.025Z,99.383545
2023-02-06T02:49:49.712Z,99.383545
2023-02-06T02:50:58.400Z,99.279785
2023-02-06T02:52:07.114Z,99.176025
2023-02-06T02:53:16.755Z,99.072266
2023-02-06T02:54:26.426Z,98.968506
2023-02-06T02:55:36.500Z,98.858643
2023-02-06T02:56:45.939Z,98.693848
2023-02-06T02:57:55.650Z,98.382568
2023-02-06T02:59:04.440Z,98.278809
2023-02-06T03:00:14.082Z,98.382568
2023-02-06T03:01:22.802Z,98.278809
2023-02-06T03:02:31.605Z,98.175049
2023-02-06T03:03:41.261Z,98.175049
2023-02-06T03:04:49.952Z,98.278809
2023-02-06T03:05:58.597Z,98.278809
2023-02-06T03:07:08.333Z,98.278809
2023-02-06T03:08:17.005Z,98.278809
2023-02-06T03:09:26.660Z,98.175049
2023-02-06T03:10:35.347Z,98.175049
2023-02-06T03:11:45.052Z,98.278809
2023-02-06T03:12:54.751Z,98.486328
2023-02-06T03:14:03.418Z,98.590088
2023-02-06T03:15:12.123Z,98.693848
2023-02-06T03:16:21.832Z,98.693848
2023-02-06T03:17:30.451Z,98.803711
2023-02-06T03:18:40.162Z,98.803711
2023-02-06T03:19:47.849Z,98.803711
2023-02-06T03:20:55.551Z,98.693848
2023-02-06T03:22:05.268Z,98.803711
2023-02-06T03:23:13.951Z,98.907471
2023-02-06T03:24:22.633Z,99.01123
2023-02-06T03:25:32.444Z,99.11499
2023-02-06T03:26:40.149Z,99.21875
2023-02-06T03:27:50.042Z,99.32251
2023-02-06T03:28:59.709Z,99.536133
2023-02-06T03:30:09.272Z,99.639893
2023-02-06T03:31:20.732Z,99.743652
2023-02-06T03:32:32.920Z,99.743652
2023-02-06T03:33:43.748Z,99.847412
2023-02-06T03:34:53.887Z,99.847412
2023-02-06T03:36:03.826Z,99.786377
2023-02-06T03:37:12.549Z,99.786377
2023-02-06T03:38:22.271Z,99.89624
2023-02-06T03:39:30.937Z,99.89624
2023-02-06T03:40:40.621Z,99.89624
2023-02-06T03:41:49.359Z,99.993896
2023-02-06T03:42:59.035Z,99.993896
2023-02-06T03:44:08.736Z,99.993896
2023-02-06T03:45:17.410Z,99.993896
2023-02-06T03:46:26.124Z,99.993896
2023-02-06T03:47:35.872Z,99.993896
2023-02-06T03:48:44.549Z,99.993896
2023-02-06T03:49:54.241Z,99.993896
2023-02-06T03:51:01.944Z,99.993896
2023-02-06T03:52:10.673Z,99.993896
2023-02-06T03:53:20.527Z,99.993896
2023-02-06T03:54:30.174Z,99.993896
2023-02-06T03:55:39.901Z,99.993896
2023-02-06T03:56:48.600Z,99.993896
2023-02-06T03:57:58.294Z,99.993896
2023-02-06T03:59:08.120Z,99.993896
2023-02-06T04:00:15.791Z,99.993896
2023-02-06T04:01:24.503Z,99.993896
2023-02-06T04:02:34.333Z,99.993896
2023-02-06T04:03:43.917Z,99.993896
2023-02-06T04:04:53.705Z,99.993896
2023-02-06T04:06:03.370Z,99.993896
2023-02-06T04:07:12.038Z,99.993896
2023-02-06T04:08:21.753Z,99.993896
2023-02-06T04:09:31.459Z,99.993896
2023-02-06T04:10:40.152Z,99.993896
2023-02-06T04:11:49.844Z,99.993896
2023-02-06T04:12:59.536Z,99.993896
2023-02-06T04:14:09.224Z,99.993896
2023-02-06T04:15:17.892Z,99.938965
2023-02-06T04:16:26.668Z,99.835205
2023-02-06T04:17:46.658Z,99.835205
2023-02-06T04:18:46.980Z,99.627686
2023-02-06T04:19:54.602Z,99.517822
2023-02-06T04:21:04.351Z,99.517822
2023-02-06T04:22:14.075Z,99.627686
2023-02-06T04:23:22.749Z,99.517822
2023-02-06T04:24:31.396Z,99.414062
2023-02-06T04:25:40.057Z,99.353027
2023-02-06T04:26:49.742Z,99.353027
2023-02-06T04:27:59.562Z,99.249268
2023-02-06T04:29:08.168Z,99.145508
2023-02-06T04:30:17.926Z,99.298096
2023-02-06T04:31:26.518Z,99.401855
2023-02-06T04:32:36.206Z,99.505615
2023-02-06T04:33:45.972Z,99.609375
2023-02-06T04:34:54.739Z,99.822998
2023-02-06T04:36:04.359Z,99.822998
2023-02-06T04:37:13.036Z,99.969482
2023-02-06T04:38:21.789Z,99.993896
2023-02-06T04:39:31.555Z,99.993896
2023-02-06T04:40:41.335Z,99.993896
2023-02-06T04:41:51.038Z,99.993896
2023-02-06T04:43:00.727Z,99.993896
2023-02-06T04:44:09.392Z,99.993896
2023-02-06T04:45:19.102Z,99.993896
2023-02-06T04:46:27.874Z,99.993896
2023-02-06T04:47:35.492Z,99.993896
2023-02-06T04:48:45.174Z,99.993896
2023-02-06T04:49:54.841Z,99.993896
2023-02-06T04:51:03.570Z,99.993896
2023-02-06T04:52:13.227Z,99.993896
2023-02-06T04:53:21.906Z,99.993896
2023-02-06T04:54:32.736Z,99.993896
2023-02-06T04:55:41.256Z,99.993896
2023-02-06T04:56:49.954Z,99.993896
2023-02-06T04:57:59.644Z,99.993896
2023-02-06T04:59:08.364Z,99.993896
2023-02-06T05:00:18.101Z,99.993896
2023-02-06T05:01:27.783Z,99.993896
2023-02-06T05:02:36.736Z,99.993896
2023-02-06T05:03:45.341Z,99.993896
2023-02-06T05:04:55.035Z,99.993896
2023-02-06T05:06:04.749Z,99.993896
2023-02-06T05:07:14.454Z,99.993896
2023-02-06T05:08:24.175Z,99.993896
2023-02-06T05:09:32.835Z,99.993896
2023-02-06T05:10:42.517Z,99.993896
2023-02-06T05:11:50.209Z,99.993896
2023-02-06T05:12:59.890Z,99.993896
2023-02-06T05:14:09.586Z,99.993896
2023-02-06T05:15:18.291Z,99.993896
2023-02-06T05:16:26.928Z,99.993896
2023-02-06T05:17:35.628Z,99.993896
2023-02-06T05:18:44.283Z,99.993896
2023-02-06T05:19:53.976Z,99.993896
2023-02-06T05:21:03.706Z,99.993896
2023-02-06T05:22:12.414Z,99.993896
2023-02-06T05:23:22.148Z,99.993896
2023-02-06T05:24:30.812Z,99.993896
2023-02-06T05:25:42.239Z,99.993896
2023-02-06T05:26:50.181Z,99.993896
2023-02-06T05:27:59.947Z,99.993896
2023-02-06T05:29:09.596Z,99.993896
2023-02-06T05:30:19.257Z,99.993896
2023-02-06T05:31:28.076Z,99.993896
2023-02-06T05:32:36.629Z,99.993896
2023-02-06T05:33:45.307Z,99.993896
2023-02-06T05:34:54.964Z,99.993896
2023-02-06T05:36:04.645Z,99.993896
2023-02-06T05:37:14.354Z,99.993896
2023-02-06T05:38:24.043Z,99.993896
2023-02-06T05:39:33.762Z,99.993896
2023-02-06T05:40:43.421Z,99.993896
2023-02-06T05:41:53.106Z,99.993896
2023-02-06T05:43:01.837Z,99.993896
2023-02-06T05:44:10.509Z,99.993896
2023-02-06T05:45:19.243Z,99.993896
2023-02-06T05:46:28.989Z,99.993896
2023-02-06T05:47:39.627Z,99.993896
2023-02-06T05:48:48.461Z,99.993896
2023-02-06T05:49:57.152Z,99.993896
2023-02-06T05:51:06.844Z,99.993896
2023-02-06T05:52:15.517Z,99.993896
2023-02-06T05:53:25.275Z,99.993896
2023-02-06T05:54:34.978Z,99.993896
2023-02-06T05:55:43.723Z,99.993896
2023-02-06T05:56:53.369Z,99.993896
2023-02-06T05:58:01.057Z,99.993896
2023-02-06T05:59:10.751Z,99.993896
2023-02-06T06:00:20.478Z,99.993896
2023-02-06T06:01:29.196Z,99.993896
2023-02-06T06:02:37.883Z,99.993896
2023-02-06T06:03:46.582Z,99.993896
2023-02-06T06:04:56.293Z,99.993896
2023-02-06T06:06:05.994Z,99.993896
2023-02-06T06:07:13.668Z,99.993896
2023-02-06T06:08:20.466Z,99.993896
2023-02-06T06:09:30.067Z,99.993896
2023-02-06T06:10:38.764Z,99.993896
2023-02-06T06:11:47.557Z,99.993896
2023-02-06T06:12:57.284Z,99.993896
2023-02-06T06:14:07.013Z,99.993896
2023-02-06T06:15:16.666Z,99.993896
2023-02-06T06:16:24.408Z,99.993896
2023-02-06T06:17:32.068Z,99.993896
2023-02-06T06:18:41.745Z,99.993896
2023-02-06T06:19:51.428Z,99.993896
2023-02-06T06:21:00.100Z,99.993896
2023-02-06T06:22:09.753Z,99.993896
2023-02-06T06:23:18.434Z,99.993896
2023-02-06T06:24:28.108Z,99.993896
2023-02-06T06:25:36.133Z,99.993896
2023-02-06T06:26:44.532Z,99.993896
2023-02-06T06:27:54.268Z,99.993896
2023-02-06T06:29:03.903Z,99.993896
2023-02-06T06:30:13.574Z,99.993896
2023-02-06T06:31:22.395Z,99.993896
2023-02-06T06:32:30.944Z,99.993896
2023-02-06T06:33:40.665Z,99.993896
2023-02-06T06:34:50.358Z,99.993896
2023-02-06T06:35:58.012Z,99.993896
2023-02-06T06:37:07.745Z,99.993896
2023-02-06T06:38:16.405Z,99.993896
2023-02-06T06:39:25.090Z,99.993896
2023-02-06T06:40:34.780Z,99.993896
2023-02-06T06:41:43.447Z,99.993896
2023-02-06T06:42:53.135Z,99.993896
2023-02-06T06:44:00.865Z,99.993896
2023-02-06T06:45:09.513Z,99.993896
2023-02-06T06:46:19.336Z,99.993896
2023-02-06T06:47:28.032Z,99.993896
2023-02-06T06:48:36.708Z,99.993896
2023-02-06T06:49:45.375Z,99.993896
2023-02-06T06:50:55.052Z,99.993896
2023-02-06T06:52:02.732Z,99.993896
2023-02-06T06:53:13.383Z,99.993896
2023-02-06T06:54:22.075Z,99.993896
2023-02-06T06:55:30.753Z,99.993896
2023-02-06T06:56:40.481Z,99.993896
2023-02-06T06:57:49.168Z,99.993896
2023-02-06T06:58:58.904Z,99.993896
2023-02-06T07:00:07.618Z,99.993896
2023-02-06T07:01:16.272Z,99.993896
2023-02-06T07:02:25.955Z,99.993896
2023-02-06T07:03:34.707Z,99.993896
2023-02-06T07:04:44.351Z,99.993896
2023-02-06T07:05:54.006Z,99.993896
2023-02-06T07:07:03.724Z,99.993896
2023-02-06T07:08:13.448Z,99.993896
2023-02-06T07:09:21.268Z,99.993896
2023-02-06T07:10:30.939Z,99.993896
2023-02-06T07:11:40.868Z,99.993896
2023-02-06T07:12:50.315Z,99.993896
2023-02-06T07:14:00.029Z,99.993896
2023-02-06T07:15:08.756Z,99.993896
2023-02-06T07:16:17.482Z,99.993896
2023-02-06T07:17:27.118Z,99.993896
2023-02-06T07:18:34.840Z,99.993896
2023-02-06T07:19:42.547Z,99.993896
2023-02-06T07:20:52.258Z,99.993896
2023-02-06T07:22:00.931Z,99.993896
2023-02-06T07:23:10.663Z,99.993896
2023-02-06T07:24:20.372Z,99.993896
2023-02-06T07:25:30.124Z,99.993896
2023-02-06T07:26:40.706Z,99.993896
2023-02-06T07:27:48.496Z,99.993896
2023-02-06T07:28:56.137Z,99.993896
2023-02-06T07:30:06.798Z,99.993896
2023-02-06T07:31:16.517Z,99.993896
2023-02-06T07:32:26.253Z,99.993896
2023-02-06T07:33:35.893Z,99.993896
2023-02-06T07:34:45.559Z,99.993896
2023-02-06T07:35:55.249Z,99.993896
2023-02-06T07:37:05.931Z,99.993896
2023-02-06T07:38:13.628Z,99.993896
2023-02-06T07:39:23.319Z,99.993896
2023-02-06T07:40:44.521Z,99.963379
2023-02-06T07:41:43.707Z,99.395752
2023-02-06T07:42:52.478Z,98.620605
2023-02-06T07:44:01.210Z,97.265625
2023-02-06T07:45:10.917Z,96.173096
2023-02-06T07:46:19.773Z,95.025635
2023-02-06T07:47:28.374Z,94.146729
2023-02-06T07:48:38.041Z,93.585205
2023-02-06T07:49:48.053Z,92.437744
2023-02-06T07:50:56.751Z,91.290283
2023-02-06T07:52:06.451Z,90.826416
2023-02-06T07:53:15.109Z,90.515137
2023-02-06T07:54:24.789Z,89.746094
2023-02-06T07:55:32.496Z,89.39209
2023-02-06T07:56:42.230Z,88.867188
2023-02-06T07:57:51.960Z,88.659668
2023-02-06T07:58:59.650Z,88.623047
2023-02-06T08:00:09.320Z,88.165283
2023-02-06T08:01:18.090Z,87.29248
2023-02-06T08:02:27.740Z,86.352539
2023-02-06T08:03:37.479Z,85.107422
2023-02-06T08:04:46.236Z,85.003662
2023-02-06T08:05:54.876Z,85.211182
2023-02-06T08:07:04.594Z,84.063721
2023-02-06T08:08:13.273Z,84.106445
2023-02-06T08:09:22.956Z,84.936523
2023-02-06T08:10:32.671Z,85.040283
2023-02-06T08:11:40.380Z,85.247803
2023-02-06T08:12:50.095Z,85.040283
2023-02-06T08:13:57.753Z,85.522461
2023-02-06T08:15:05.448Z,85.064697
2023-02-06T08:16:15.250Z,84.509277
2023-02-06T08:17:23.846Z,83.26416
2023-02-06T08:18:33.553Z,82.739258
2023-02-06T08:19:42.339Z,82.702637
2023-02-06T08:20:50.948Z,82.183838
2023-02-06T08:22:00.623Z,82.702637
2023-02-06T08:23:09.334Z,81.768799
2023-02-06T08:24:18.110Z,81.939697
2023-02-06T08:25:27.795Z,80.731201
2023-02-06T08:26:36.495Z,81.35376
2023-02-06T08:27:46.273Z,81.732178
2023-02-06T08:28:54.853Z,79.968262
2023-02-06T08:30:03.536Z,80.450439
2023-02-06T08:31:13.312Z,81.036377
2023-02-06T08:32:20.908Z,80.786133
2023-02-06T08:33:29.578Z,79.815674
2023-02-06T08:34:39.317Z,79.510498
2023-02-06T08:35:48.041Z,77.709961
2023-02-06T08:36:57.726Z,77.502441
2023-02-06T08:38:07.481Z,77.191162
2023-02-06T08:39:16.191Z,76.464844
2023-02-06T08:40:25.874Z,76.153564
2023-02-06T08:41:33.592Z,75.396729
2023-02-06T08:42:42.262Z,73.529053
2023-02-06T08:43:51.978Z,73.046875
2023-02-06T08:45:01.653Z,74.188232
2023-02-06T08:46:10.361Z,73.150635
2023-02-06T08:47:19.048Z,72.839355
2023-02-06T08:48:27.737Z,72.839355
2023-02-06T08:49:37.416Z,71.356201
2023-02-06T08:50:48.778Z,72.08252
2023-02-06T08:51:57.524Z,72.045898
2023-02-06T08:53:06.194Z,70.977783
2023-02-06T08:54:14.901Z,69.873047
2023-02-06T08:55:25.233Z,70.214844
2023-02-06T08:56:34.368Z,71.282959
2023-02-06T08:57:42.064Z,71.008301
2023-02-06T08:58:49.757Z,71.31958
2023-02-06T08:59:59.492Z,72.113037
2023-02-06T09:01:08.217Z,71.459961
2023-02-06T09:02:17.942Z,70.355225
2023-02-06T09:03:27.621Z,71.148682
2023-02-06T09:04:36.369Z,70.080566
2023-02-06T09:05:46.106Z,69.07959
2023-02-06T09:06:56.797Z,69.628906
2023-02-06T09:08:04.499Z,69.732666
2023-02-06T09:09:14.194Z,70.318604
2023-02-06T09:10:27.605Z,69.903564
2023-02-06T09:11:32.572Z,69.390869
2023-02-06T09:12:41.240Z,70.76416
2023-02-06T09:13:50.936Z,70.697021
2023-02-06T09:15:00.650Z,70.76416
2023-02-06T09:16:08.669Z,70.318604
2023-02-06T09:17:18.249Z,70.288086
2023-02-06T09:18:27.917Z,69.561768
2023-02-06T09:19:37.599Z,70.806885
2023-02-06T09:20:46.282Z,70.495605
2023-02-06T09:21:54.985Z,70.977783
2023-02-06T09:23:04.677Z,70.153809
2023-02-06T09:24:14.480Z,70.184326
2023-02-06T09:25:24.093Z,70.495605
2023-02-06T09:26:33.770Z,70.214844
2023-02-06T09:27:44.895Z,70.318604
2023-02-06T09:28:53.574Z,70.593262
2023-02-06T09:30:02.239Z,73.010254
2023-02-06T09:31:11.000Z,72.772217
2023-02-06T09:32:20.667Z,72.045898
2023-02-06T09:33:30.470Z,71.5271
2023-02-06T09:34:38.161Z,71.453857
2023-02-06T09:35:46.854Z,72.698975
2023-02-06T09:36:56.565Z,73.803711
2023-02-06T09:38:05.232Z,73.388672
2023-02-06T09:39:14.928Z,72.839355
2023-02-06T09:40:23.665Z,72.772217
2023-02-06T09:41:32.286Z,71.533203
2023-02-06T09:42:42.020Z,70.703125
2023-02-06T09:43:50.746Z,69.842529
2023-02-06T09:44:58.461Z,69.42749
2023-02-06T09:46:08.212Z,69.63501
2023-02-06T09:47:17.877Z,69.396973
2023-02-06T09:48:26.554Z,68.670654
2023-02-06T09:49:35.247Z,69.32373
2023-02-06T09:50:44.939Z,69.915771
2023-02-06T09:51:54.614Z,68.566895
2023-02-06T09:53:02.329Z,69.775391
2023-02-06T09:54:10.994Z,69.329834
2023-02-06T09:55:20.773Z,68.682861
2023-02-06T09:56:30.481Z,66.717529
2023-02-06T09:57:39.124Z,67.749023
2023-02-06T09:58:48.842Z,66.894531
2023-02-06T09:59:57.560Z,66.656494
2023-02-06T10:01:07.241Z,66.699219
2023-02-06T10:02:15.950Z,65.979004
2023-02-06T10:03:25.699Z,64.94751
2023-02-06T10:04:35.414Z,64.562988
2023-02-06T10:05:45.137Z,64.074707
2023-02-06T10:06:53.825Z,65.240479
2023-02-06T10:08:02.569Z,65.374756
2023-02-06T10:09:11.248Z,65.124512
2023-02-06T10:10:20.970Z,66.63208
2023-02-06T10:11:29.635Z,68.664551
2023-02-06T10:12:38.338Z,70.251465
2023-02-06T10:13:48.041Z,71.075439
2023-02-06T10:14:56.743Z,71.563721
2023-02-06T10:16:06.497Z,71.66748
2023-02-06T10:17:16.124Z,71.148682
2023-02-06T10:18:24.874Z,70.178223
2023-02-06T10:19:34.602Z,71.246338
2023-02-06T10:20:43.311Z,71.490479
2023-02-06T10:21:53.014Z,72.113037
2023-02-06T10:23:02.788Z,73.944092
2023-02-06T10:24:11.457Z,73.114014
2023-02-06T10:25:20.224Z,73.425293
2023-02-06T10:26:28.913Z,72.698975
2023-02-06T10:27:38.625Z,72.491455
2023-02-06T10:28:48.417Z,72.076416
2023-02-06T10:29:58.078Z,70.76416
2023-02-06T10:31:08.235Z,72.528076
2023-02-06T10:32:17.809Z,73.254395
2023-02-06T10:33:27.493Z,73.010254
2023-02-06T10:34:36.161Z,72.906494
2023-02-06T10:35:45.879Z,72.387695
2023-02-06T10:36:55.575Z,72.253418
2023-02-06T10:38:05.255Z,71.734619
2023-02-06T10:39:12.929Z,71.112061
2023-02-06T10:40:21.618Z,70.52002
2023-02-06T10:41:31.309Z,72.076416
2023-02-06T10:42:41.021Z,72.045898
2023-02-06T10:43:49.756Z,72.045898
2023-02-06T10:45:09.755Z,71.630859
2023-02-06T10:46:09.080Z,70.10498
2023-02-06T10:47:18.771Z,71.002197
2023-02-06T10:48:28.500Z,71.862793
2023-02-06T10:49:37.161Z,72.003174
2023-02-06T10:50:44.853Z,72.76001
2023-02-06T10:51:53.550Z,73.937988
2023-02-06T10:53:03.245Z,74.67041
2023-02-06T10:54:12.955Z,74.87793
2023-02-06T10:55:21.661Z,75.152588
2023-02-06T10:56:29.330Z,75.152588
2023-02-06T10:57:38.997Z,74.945068
2023-02-06T10:58:48.698Z,75.537109
2023-02-06T10:59:57.404Z,76.019287
2023-02-06T11:01:20.181Z,74.87793
2023-02-06T11:02:17.837Z,74.493408
2023-02-06T11:03:27.457Z,74.462891
2023-02-06T11:04:36.126Z,74.047852
2023-02-06T11:05:42.839Z,73.632812
2023-02-06T11:06:52.520Z,73.803711
2023-02-06T11:08:01.203Z,73.181152
2023-02-06T11:09:10.889Z,72.796631
2023-02-06T11:10:20.582Z,74.182129
2023-02-06T11:11:29.281Z,73.455811
2023-02-06T11:12:38.966Z,74.01123
2023-02-06T11:13:47.655Z,74.01123
2023-02-06T11:14:56.354Z,75.189209
2023-02-06T11:16:05.123Z,75.775146
2023-02-06T11:17:13.823Z,74.87793
2023-02-06T11:18:22.486Z,74.249268
2023-02-06T11:19:30.190Z,74.249268
2023-02-06T11:20:39.055Z,73.834229
2023-02-06T11:21:48.548Z,74.981689
2023-02-06T11:22:56.449Z,74.67041
2023-02-06T11:24:07.109Z,74.353027
2023-02-06T11:25:16.794Z,74.737549
2023-02-06T11:26:25.489Z,74.249268
2023-02-06T11:27:35.181Z,73.834229
2023-02-06T11:28:44.900Z,75.292969
2023-02-06T11:29:54.554Z,74.67041
2023-02-06T11:31:04.281Z,75.219727
2023-02-06T11:32:12.960Z,76.263428
2023-02-06T11:33:20.651Z,76.782227
2023-02-06T11:34:30.524Z,77.056885
2023-02-06T11:35:40.576Z,76.470947
2023-02-06T11:36:49.940Z,76.470947
2023-02-06T11:37:58.610Z,76.263428
2023-02-06T11:39:07.308Z,77.478027
2023-02-06T11:40:16.987Z,76.159668
2023-02-06T11:41:24.659Z,75.640869
2023-02-06T11:42:32.395Z,76.715088
2023-02-06T11:43:41.106Z,77.441406
2023-02-06T11:44:49.812Z,77.130127
2023-02-06T11:45:59.524Z,76.855469
2023-02-06T11:47:09.195Z,77.441406
2023-02-06T11:48:17.912Z,78.588867
2023-02-06T11:49:27.750Z,78.033447
2023-02-06T11:50:36.715Z,77.612305
2023-02-06T11:51:45.097Z,77.612305
2023-02-06T11:52:54.788Z,76.989746
2023-02-06T11:54:03.477Z,76.922607
2023-02-06T11:55:13.168Z,77.856445
2023-02-06T11:56:21.848Z,78.588867
2023-02-06T11:57:30.600Z,77.893066
2023-02-06T11:58:40.281Z,78.417969
2023-02-06T11:59:48.982Z,78.900146
2023-02-06T12:00:58.656Z,78.485107
2023-02-06T12:02:09.386Z,78.417969
2023-02-06T12:03:19.104Z,78.729248
2023-02-06T12:04:28.785Z,78.729248
2023-02-06T12:05:38.808Z,78.625488
2023-02-06T12:06:47.173Z,78.521729
2023-02-06T12:07:56.889Z,77.929688
2023-02-06T12:09:05.637Z,78.625488
2023-02-06T12:10:14.374Z,78.936768
2023-02-06T12:11:24.021Z,78.344727
2023-02-06T12:12:32.729Z,79.180908
2023-02-06T12:13:41.413Z,78.973389
2023-02-06T12:14:50.122Z,79.595947
2023-02-06T12:15:58.819Z,79.595947
2023-02-06T12:17:08.504Z,79.077148
2023-02-06T12:18:17.183Z,79.907227
2023-02-06T12:19:25.840Z,80.01709
2023-02-06T12:20:35.570Z,80.12085
2023-02-06T12:21:45.341Z,79.803467
2023-02-06T12:22:53.923Z,79.699707
2023-02-06T12:24:02.618Z,79.803467
2023-02-06T12:25:11.312Z,79.180908
2023-02-06T12:26:21.023Z,79.528809
2023-02-06T12:27:28.748Z,80.26123
2023-02-06T12:28:36.458Z,80.57251
2023-02-06T12:29:46.149Z,79.772949
2023-02-06T12:30:55.935Z,80.297852
2023-02-06T12:32:04.550Z,80.609131
2023-02-06T12:33:13.223Z,81.02417
2023-02-06T12:34:21.953Z,81.549072
2023-02-06T12:35:31.652Z,81.298828
2023-02-06T12:36:39.342Z,81.298828
2023-02-06T12:37:49.296Z,81.12793
2023-02-06T12:38:58.932Z,81.512451
2023-02-06T12:40:08.609Z,81.719971
2023-02-06T12:41:18.309Z,81.652832
2023-02-06T12:42:27.012Z,81.549072
2023-02-06T12:43:36.726Z,81.652832
2023-02-06T12:44:46.432Z,82.067871
2023-02-06T12:45:54.350Z,82.275391
2023-02-06T12:47:02.904Z,82.653809
2023-02-06T12:48:12.584Z,81.82373
2023-02-06T12:49:22.335Z,81.616211
2023-02-06T12:50:31.010Z,81.12793
2023-02-06T12:51:40.702Z,81.549072
2023-02-06T12:52:49.394Z,82.48291
2023-02-06T12:53:59.114Z,82.867432
2023-02-06T12:55:08.801Z,82.342529
2023-02-06T12:56:18.511Z,82.275391
2023-02-06T12:57:28.221Z,82.275391
2023-02-06T12:58:37.894Z,82.275391
2023-02-06T12:59:57.390Z,82.696533
2023-02-06T13:00:58.266Z,82.940674
2023-02-06T13:02:07.976Z,83.673096
2023-02-06T13:03:16.669Z,83.355713
2023-02-06T13:04:26.358Z,83.673096
2023-02-06T13:05:35.247Z,83.569336
2023-02-06T13:06:44.746Z,83.673096
2023-02-06T13:07:54.439Z,83.776855
2023-02-06T13:09:03.169Z,83.776855
2023-02-06T13:10:11.859Z,84.399414